sensor_id;sensor_type;location;lat;lon;timestamp;P1;durP1;ratioP1;P2;durP2;ratioP2
13481;SDS011;6813;60.352;15.746;2022-12-13T00:01:30;1.20;;;0.90;;
13481;SDS011;6813;60.352;15.746;2022-12-13T00:03:57;2.20;;;1.30;;
13481;SDS011;6813;60.352;15.746;2022-12-13T00:06:24;1.30;;;1.00;;
13481;SDS011;6813;60.352;15.746;2022-12-13T00:08:50;1.27;;;1.00;;
13481;SDS011;6813;60.352;15.746;2022-12-13T00:11:16;2.53;;;1.30;;
13481;SDS011;6813;60.352;15.746;2022-12-13T00:13:42;3.30;;;1.20;;
13481;SDS011;6813;60.352;15.746;2022-12-13T00:16:12;2.20;;;1.00;;
13481;SDS011;6813;60.352;15.746;2022-12-13T00:18:39;1.93;;;1.37;;
13481;SDS011;6813;60.352;15.746;2022-12-13T00:21:06;1.20;;;1.10;;
13481;SDS011;6813;60.352;15.746;2022-12-13T00:23:33;1.20;;;1.10;;
13481;SDS011;6813;60.352;15.746;2022-12-13T00:26:03;1.60;;;1.30;;
13481;SDS011;6813;60.352;15.746;2022-12-13T00:28:30;1.73;;;1.20;;
13481;SDS011;6813;60.352;15.746;2022-12-13T00:30:57;2.27;;;1.20;;
13481;SDS011;6813;60.352;15.746;2022-12-13T00:33:23;1.27;;;1.17;;
13481;SDS011;6813;60.352;15.746;2022-12-13T00:35:48;0.90;;;0.80;;
13481;SDS011;6813;60.352;15.746;2022-12-13T00:38:14;1.97;;;1.40;;
13481;SDS011;6813;60.352;15.746;2022-12-13T00:40:40;1.33;;;1.23;;
13481;SDS011;6813;60.352;15.746;2022-12-13T00:43:05;2.53;;;1.20;;
13481;SDS011;6813;60.352;15.746;2022-12-13T00:45:31;1.43;;;1.10;;
13481;SDS011;6813;60.352;15.746;2022-12-13T00:47:57;1.30;;;1.07;;
13481;SDS011;6813;60.352;15.746;2022-12-13T00:50:23;1.30;;;1.20;;
13481;SDS011;6813;60.352;15.746;2022-12-13T00:52:49;2.13;;;1.20;;
13481;SDS011;6813;60.352;15.746;2022-12-13T00:55:14;1.80;;;1.30;;
13481;SDS011;6813;60.352;15.746;2022-12-13T00:57:40;2.07;;;1.10;;
13481;SDS011;6813;60.352;15.746;2022-12-13T01:00:06;1.53;;;1.10;;
13481;SDS011;6813;60.352;15.746;2022-12-13T01:02:32;1.50;;;1.40;;
13481;SDS011;6813;60.352;15.746;2022-12-13T01:04:58;2.93;;;1.23;;
13481;SDS011;6813;60.352;15.746;2022-12-13T01:07:24;1.97;;;1.47;;
13481;SDS011;6813;60.352;15.746;2022-12-13T01:09:49;1.73;;;1.07;;
13481;SDS011;6813;60.352;15.746;2022-12-13T01:12:15;1.67;;;1.47;;
13481;SDS011;6813;60.352;15.746;2022-12-13T01:14:41;1.53;;;1.27;;
13481;SDS011;6813;60.352;15.746;2022-12-13T01:17:07;1.83;;;1.40;;
13481;SDS011;6813;60.352;15.746;2022-12-13T01:19:33;2.23;;;1.60;;
13481;SDS011;6813;60.352;15.746;2022-12-13T01:22:00;1.30;;;1.20;;
13481;SDS011;6813;60.352;15.746;2022-12-13T01:24:28;2.20;;;1.10;;
13481;SDS011;6813;60.352;15.746;2022-12-13T01:26:54;1.80;;;1.00;;
13481;SDS011;6813;60.352;15.746;2022-12-13T01:29:20;2.00;;;1.20;;
13481;SDS011;6813;60.352;15.746;2022-12-13T01:31:46;1.20;;;1.03;;
13481;SDS011;6813;60.352;15.746;2022-12-13T01:34:13;1.73;;;1.10;;
13481;SDS011;6813;60.352;15.746;2022-12-13T01:36:42;1.63;;;1.07;;
13481;SDS011;6813;60.352;15.746;2022-12-13T01:39:10;1.47;;;1.27;;
13481;SDS011;6813;60.352;15.746;2022-12-13T01:41:37;1.57;;;1.07;;
13481;SDS011;6813;60.352;15.746;2022-12-13T01:44:04;1.30;;;1.20;;
13481;SDS011;6813;60.352;15.746;2022-12-13T01:46:32;1.20;;;1.10;;
13481;SDS011;6813;60.352;15.746;2022-12-13T01:49:06;1.17;;;1.03;;
13481;SDS011;6813;60.352;15.746;2022-12-13T01:51:38;1.20;;;1.10;;
13481;SDS011;6813;60.352;15.746;2022-12-13T01:54:12;1.60;;;1.13;;
13481;SDS011;6813;60.352;15.746;2022-12-13T01:56:46;1.43;;;0.90;;
13481;SDS011;6813;60.352;15.746;2022-12-13T01:59:15;1.47;;;1.17;;
13481;SDS011;6813;60.352;15.746;2022-12-13T02:01:43;2.63;;;1.43;;
13481;SDS011;6813;60.352;15.746;2022-12-13T02:04:10;1.60;;;1.23;;
13481;SDS011;6813;60.352;15.746;2022-12-13T02:06:37;1.30;;;1.20;;
13481;SDS011;6813;60.352;15.746;2022-12-13T02:09:06;2.63;;;1.40;;
13481;SDS011;6813;60.352;15.746;2022-12-13T02:11:34;2.83;;;1.50;;
13481;SDS011;6813;60.352;15.746;2022-12-13T02:14:02;1.53;;;1.07;;
13481;SDS011;6813;60.352;15.746;2022-12-13T02:22:12;1.73;;;1.10;;
13481;SDS011;6813;60.352;15.746;2022-12-13T02:24:55;2.03;;;1.20;;
13481;SDS011;6813;60.352;15.746;2022-12-13T02:30:25;1.90;;;1.10;;
13481;SDS011;6813;60.352;15.746;2022-12-13T02:40:51;1.03;;;0.93;;
13481;SDS011;6813;60.352;15.746;2022-12-13T02:43:23;1.13;;;1.00;;
13481;SDS011;6813;60.352;15.746;2022-12-13T02:45:57;1.30;;;1.17;;
13481;SDS011;6813;60.352;15.746;2022-12-13T02:48:26;1.83;;;1.20;;
13481;SDS011;6813;60.352;15.746;2022-12-13T02:50:53;1.90;;;1.00;;
13481;SDS011;6813;60.352;15.746;2022-12-13T02:53:21;1.10;;;1.00;;
13481;SDS011;6813;60.352;15.746;2022-12-13T02:55:48;1.50;;;1.00;;
13481;SDS011;6813;60.352;15.746;2022-12-13T02:58:15;2.03;;;1.10;;
13481;SDS011;6813;60.352;15.746;2022-12-13T03:00:55;1.70;;;1.33;;
13481;SDS011;6813;60.352;15.746;2022-12-13T03:03:52;1.20;;;1.10;;
13481;SDS011;6813;60.352;15.746;2022-12-13T03:10:02;1.37;;;1.20;;
13481;SDS011;6813;60.352;15.746;2022-12-13T03:12:44;1.40;;;1.10;;
13481;SDS011;6813;60.352;15.746;2022-12-13T03:15:53;1.30;;;0.83;;
13481;SDS011;6813;60.352;15.746;2022-12-13T03:18:22;1.17;;;0.90;;
13481;SDS011;6813;60.352;15.746;2022-12-13T03:20:52;0.77;;;0.77;;
13481;SDS011;6813;60.352;15.746;2022-12-13T03:23:23;1.33;;;1.10;;
13481;SDS011;6813;60.352;15.746;2022-12-13T03:25:51;2.60;;;0.93;;
13481;SDS011;6813;60.352;15.746;2022-12-13T03:28:19;1.97;;;0.97;;
13481;SDS011;6813;60.352;15.746;2022-12-13T03:30:45;1.40;;;0.90;;
13481;SDS011;6813;60.352;15.746;2022-12-13T03:33:11;1.53;;;0.90;;
13481;SDS011;6813;60.352;15.746;2022-12-13T03:35:38;1.20;;;1.00;;
13481;SDS011;6813;60.352;15.746;2022-12-13T03:38:05;1.57;;;1.27;;
13481;SDS011;6813;60.352;15.746;2022-12-13T03:40:31;1.13;;;0.80;;
13481;SDS011;6813;60.352;15.746;2022-12-13T03:42:58;1.23;;;0.90;;
13481;SDS011;6813;60.352;15.746;2022-12-13T03:45:24;1.53;;;0.93;;
13481;SDS011;6813;60.352;15.746;2022-12-13T03:47:50;1.00;;;0.80;;
13481;SDS011;6813;60.352;15.746;2022-12-13T03:50:15;1.57;;;1.03;;
13481;SDS011;6813;60.352;15.746;2022-12-13T03:52:41;1.53;;;1.07;;
13481;SDS011;6813;60.352;15.746;2022-12-13T03:55:08;1.77;;;1.00;;
13481;SDS011;6813;60.352;15.746;2022-12-13T03:57:35;0.90;;;0.80;;
13481;SDS011;6813;60.352;15.746;2022-12-13T04:00:02;1.80;;;0.83;;
13481;SDS011;6813;60.352;15.746;2022-12-13T04:02:29;0.80;;;0.80;;
13481;SDS011;6813;60.352;15.746;2022-12-13T04:04:54;1.13;;;1.00;;
13481;SDS011;6813;60.352;15.746;2022-12-13T04:07:20;1.43;;;1.03;;
13481;SDS011;6813;60.352;15.746;2022-12-13T04:09:46;2.40;;;0.80;;
13481;SDS011;6813;60.352;15.746;2022-12-13T04:12:11;1.73;;;1.20;;
13481;SDS011;6813;60.352;15.746;2022-12-13T04:14:55;0.97;;;0.93;;
13481;SDS011;6813;60.352;15.746;2022-12-13T04:17:21;1.23;;;0.90;;
13481;SDS011;6813;60.352;15.746;2022-12-13T04:19:47;1.60;;;1.10;;
13481;SDS011;6813;60.352;15.746;2022-12-13T04:22:12;1.00;;;0.70;;
13481;SDS011;6813;60.352;15.746;2022-12-13T04:24:38;0.70;;;0.70;;
13481;SDS011;6813;60.352;15.746;2022-12-13T04:27:04;1.20;;;0.90;;
13481;SDS011;6813;60.352;15.746;2022-12-13T04:29:29;0.60;;;0.60;;
13481;SDS011;6813;60.352;15.746;2022-12-13T04:31:55;2.30;;;1.27;;
13481;SDS011;6813;60.352;15.746;2022-12-13T04:34:21;1.30;;;0.80;;
13481;SDS011;6813;60.352;15.746;2022-12-13T04:36:47;1.27;;;0.80;;
13481;SDS011;6813;60.352;15.746;2022-12-13T04:39:12;1.10;;;1.00;;
13481;SDS011;6813;60.352;15.746;2022-12-13T04:41:38;1.73;;;0.83;;
13481;SDS011;6813;60.352;15.746;2022-12-13T04:44:05;1.07;;;1.00;;
13481;SDS011;6813;60.352;15.746;2022-12-13T04:46:32;1.00;;;0.90;;
13481;SDS011;6813;60.352;15.746;2022-12-13T04:48:58;0.67;;;0.67;;
13481;SDS011;6813;60.352;15.746;2022-12-13T04:51:24;0.73;;;0.70;;
13481;SDS011;6813;60.352;15.746;2022-12-13T04:53:50;1.80;;;1.10;;
13481;SDS011;6813;60.352;15.746;2022-12-13T04:56:16;1.47;;;0.83;;
13481;SDS011;6813;60.352;15.746;2022-12-13T04:58:42;2.20;;;0.87;;
13481;SDS011;6813;60.352;15.746;2022-12-13T05:01:09;1.37;;;1.00;;
13481;SDS011;6813;60.352;15.746;2022-12-13T05:03:35;0.73;;;0.60;;
13481;SDS011;6813;60.352;15.746;2022-12-13T05:06:05;1.20;;;0.83;;
13481;SDS011;6813;60.352;15.746;2022-12-13T05:08:31;1.30;;;0.80;;
13481;SDS011;6813;60.352;15.746;2022-12-13T05:10:57;1.27;;;1.00;;
13481;SDS011;6813;60.352;15.746;2022-12-13T05:13:23;0.77;;;0.77;;
13481;SDS011;6813;60.352;15.746;2022-12-13T05:15:59;1.00;;;0.87;;
13481;SDS011;6813;60.352;15.746;2022-12-13T05:18:26;1.53;;;0.80;;
13481;SDS011;6813;60.352;15.746;2022-12-13T05:20:52;0.70;;;0.70;;
13481;SDS011;6813;60.352;15.746;2022-12-13T05:23:19;0.97;;;0.70;;
13481;SDS011;6813;60.352;15.746;2022-12-13T05:25:46;1.90;;;0.73;;
13481;SDS011;6813;60.352;15.746;2022-12-13T05:28:12;0.83;;;0.70;;
13481;SDS011;6813;60.352;15.746;2022-12-13T05:30:38;1.23;;;0.87;;
13481;SDS011;6813;60.352;15.746;2022-12-13T05:33:05;1.57;;;1.00;;
13481;SDS011;6813;60.352;15.746;2022-12-13T05:35:31;1.07;;;0.93;;
13481;SDS011;6813;60.352;15.746;2022-12-13T05:37:56;1.27;;;1.00;;
13481;SDS011;6813;60.352;15.746;2022-12-13T05:40:22;1.20;;;1.10;;
13481;SDS011;6813;60.352;15.746;2022-12-13T05:42:49;0.97;;;0.83;;
13481;SDS011;6813;60.352;15.746;2022-12-13T05:45:16;1.80;;;0.83;;
13481;SDS011;6813;60.352;15.746;2022-12-13T05:47:42;1.10;;;0.90;;
13481;SDS011;6813;60.352;15.746;2022-12-13T05:50:08;1.30;;;1.20;;
13481;SDS011;6813;60.352;15.746;2022-12-13T05:52:35;1.13;;;1.03;;
13481;SDS011;6813;60.352;15.746;2022-12-13T05:55:01;1.20;;;1.10;;
13481;SDS011;6813;60.352;15.746;2022-12-13T05:57:27;0.80;;;0.80;;
13481;SDS011;6813;60.352;15.746;2022-12-13T05:59:53;1.10;;;0.97;;
13481;SDS011;6813;60.352;15.746;2022-12-13T06:02:19;2.57;;;1.23;;
13481;SDS011;6813;60.352;15.746;2022-12-13T06:04:45;2.80;;;1.70;;
13481;SDS011;6813;60.352;15.746;2022-12-13T06:07:11;2.00;;;1.20;;
13481;SDS011;6813;60.352;15.746;2022-12-13T06:09:37;1.63;;;1.10;;
13481;SDS011;6813;60.352;15.746;2022-12-13T06:12:03;1.10;;;1.00;;
13481;SDS011;6813;60.352;15.746;2022-12-13T06:14:29;1.23;;;1.00;;
13481;SDS011;6813;60.352;15.746;2022-12-13T06:16:55;0.80;;;0.70;;
13481;SDS011;6813;60.352;15.746;2022-12-13T06:19:20;1.57;;;1.00;;
13481;SDS011;6813;60.352;15.746;2022-12-13T06:21:47;0.80;;;0.80;;
13481;SDS011;6813;60.352;15.746;2022-12-13T06:24:14;1.20;;;1.00;;
13481;SDS011;6813;60.352;15.746;2022-12-13T06:26:41;1.17;;;1.00;;
13481;SDS011;6813;60.352;15.746;2022-12-13T06:29:07;1.03;;;0.93;;
13481;SDS011;6813;60.352;15.746;2022-12-13T06:31:34;2.10;;;1.00;;
13481;SDS011;6813;60.352;15.746;2022-12-13T06:34:03;1.03;;;0.90;;
13481;SDS011;6813;60.352;15.746;2022-12-13T06:36:29;1.03;;;0.90;;
13481;SDS011;6813;60.352;15.746;2022-12-13T06:38:55;0.87;;;0.80;;
13481;SDS011;6813;60.352;15.746;2022-12-13T06:41:20;0.73;;;0.73;;
13481;SDS011;6813;60.352;15.746;2022-12-13T06:43:46;1.17;;;0.80;;
13481;SDS011;6813;60.352;15.746;2022-12-13T06:46:13;0.70;;;0.70;;
13481;SDS011;6813;60.352;15.746;2022-12-13T06:48:39;0.70;;;0.67;;
13481;SDS011;6813;60.352;15.746;2022-12-13T06:51:05;0.97;;;0.87;;
13481;SDS011;6813;60.352;15.746;2022-12-13T06:53:33;0.80;;;0.77;;
13481;SDS011;6813;60.352;15.746;2022-12-13T06:56:17;1.93;;;0.97;;
13481;SDS011;6813;60.352;15.746;2022-12-13T06:58:43;1.40;;;0.80;;
13481;SDS011;6813;60.352;15.746;2022-12-13T07:01:13;1.13;;;0.83;;
13481;SDS011;6813;60.352;15.746;2022-12-13T07:03:40;0.80;;;0.80;;
13481;SDS011;6813;60.352;15.746;2022-12-13T07:06:07;1.30;;;1.03;;
13481;SDS011;6813;60.352;15.746;2022-12-13T07:08:41;1.03;;;0.80;;
13481;SDS011;6813;60.352;15.746;2022-12-13T07:11:18;1.50;;;1.03;;
13481;SDS011;6813;60.352;15.746;2022-12-13T07:13:46;1.20;;;1.10;;
13481;SDS011;6813;60.352;15.746;2022-12-13T07:16:12;1.00;;;0.90;;
13481;SDS011;6813;60.352;15.746;2022-12-13T07:18:38;1.43;;;1.03;;
13481;SDS011;6813;60.352;15.746;2022-12-13T07:21:04;0.67;;;0.67;;
13481;SDS011;6813;60.352;15.746;2022-12-13T07:23:35;1.47;;;1.07;;
13481;SDS011;6813;60.352;15.746;2022-12-13T07:26:02;0.80;;;0.80;;
13481;SDS011;6813;60.352;15.746;2022-12-13T07:28:28;1.10;;;1.00;;
13481;SDS011;6813;60.352;15.746;2022-12-13T07:30:58;1.70;;;1.07;;
13481;SDS011;6813;60.352;15.746;2022-12-13T07:33:26;2.03;;;1.20;;
13481;SDS011;6813;60.352;15.746;2022-12-13T07:36:15;1.00;;;0.90;;
13481;SDS011;6813;60.352;15.746;2022-12-13T07:38:41;1.23;;;1.03;;
13481;SDS011;6813;60.352;15.746;2022-12-13T07:41:07;0.80;;;0.80;;
13481;SDS011;6813;60.352;15.746;2022-12-13T07:43:33;1.17;;;1.07;;
13481;SDS011;6813;60.352;15.746;2022-12-13T07:46:00;0.80;;;0.80;;
13481;SDS011;6813;60.352;15.746;2022-12-13T07:48:27;1.20;;;0.93;;
13481;SDS011;6813;60.352;15.746;2022-12-13T07:50:53;1.23;;;0.87;;
13481;SDS011;6813;60.352;15.746;2022-12-13T07:53:24;1.07;;;0.83;;
13481;SDS011;6813;60.352;15.746;2022-12-13T07:55:49;1.37;;;1.00;;
13481;SDS011;6813;60.352;15.746;2022-12-13T07:58:15;1.20;;;1.10;;
13481;SDS011;6813;60.352;15.746;2022-12-13T08:00:42;1.70;;;1.30;;
13481;SDS011;6813;60.352;15.746;2022-12-13T08:03:09;1.40;;;1.17;;
13481;SDS011;6813;60.352;15.746;2022-12-13T08:05:35;1.60;;;1.07;;
13481;SDS011;6813;60.352;15.746;2022-12-13T08:08:02;0.90;;;0.90;;
13481;SDS011;6813;60.352;15.746;2022-12-13T08:10:29;0.93;;;0.83;;
13481;SDS011;6813;60.352;15.746;2022-12-13T08:12:55;1.58;;;1.48;;
13481;SDS011;6813;60.352;15.746;2022-12-13T08:15:21;1.47;;;1.37;;
13481;SDS011;6813;60.352;15.746;2022-12-13T08:17:47;1.13;;;1.00;;
13481;SDS011;6813;60.352;15.746;2022-12-13T08:20:13;1.40;;;1.30;;
13481;SDS011;6813;60.352;15.746;2022-12-13T08:22:39;1.00;;;0.90;;
13481;SDS011;6813;60.352;15.746;2022-12-13T08:25:06;1.30;;;0.97;;
13481;SDS011;6813;60.352;15.746;2022-12-13T08:27:32;1.30;;;1.20;;
13481;SDS011;6813;60.352;15.746;2022-12-13T08:29:58;1.93;;;1.37;;
13481;SDS011;6813;60.352;15.746;2022-12-13T08:32:23;7.03;;;1.40;;
13481;SDS011;6813;60.352;15.746;2022-12-13T08:34:49;1.67;;;1.10;;
13481;SDS011;6813;60.352;15.746;2022-12-13T08:37:15;1.80;;;0.93;;
13481;SDS011;6813;60.352;15.746;2022-12-13T08:39:41;1.43;;;1.10;;
13481;SDS011;6813;60.352;15.746;2022-12-13T08:42:12;2.07;;;1.27;;
13481;SDS011;6813;60.352;15.746;2022-12-13T08:44:40;1.47;;;1.37;;
13481;SDS011;6813;60.352;15.746;2022-12-13T08:47:07;1.97;;;1.27;;
13481;SDS011;6813;60.352;15.746;2022-12-13T08:49:33;1.63;;;0.90;;
13481;SDS011;6813;60.352;15.746;2022-12-13T08:51:59;1.77;;;1.13;;
13481;SDS011;6813;60.352;15.746;2022-12-13T08:54:24;1.30;;;1.20;;
13481;SDS011;6813;60.352;15.746;2022-12-13T08:56:50;1.23;;;1.00;;
13481;SDS011;6813;60.352;15.746;2022-12-13T08:59:16;1.03;;;0.93;;
13481;SDS011;6813;60.352;15.746;2022-12-13T09:01:42;1.67;;;0.90;;
13481;SDS011;6813;60.352;15.746;2022-12-13T09:04:10;2.77;;;1.30;;
13481;SDS011;6813;60.352;15.746;2022-12-13T09:06:36;1.63;;;1.10;;
13481;SDS011;6813;60.352;15.746;2022-12-13T09:09:02;2.83;;;1.50;;
13481;SDS011;6813;60.352;15.746;2022-12-13T09:11:27;1.13;;;0.90;;
13481;SDS011;6813;60.352;15.746;2022-12-13T09:13:53;1.93;;;1.20;;
13481;SDS011;6813;60.352;15.746;2022-12-13T09:16:20;2.60;;;1.00;;
13481;SDS011;6813;60.352;15.746;2022-12-13T09:18:49;3.90;;;1.30;;
13481;SDS011;6813;60.352;15.746;2022-12-13T09:21:18;2.70;;;1.30;;
13481;SDS011;6813;60.352;15.746;2022-12-13T09:23:44;1.77;;;0.90;;
13481;SDS011;6813;60.352;15.746;2022-12-13T09:26:10;1.33;;;0.97;;
13481;SDS011;6813;60.352;15.746;2022-12-13T09:28:38;1.40;;;1.10;;
13481;SDS011;6813;60.352;15.746;2022-12-13T09:31:12;1.17;;;1.00;;
13481;SDS011;6813;60.352;15.746;2022-12-13T09:33:39;0.90;;;0.90;;
13481;SDS011;6813;60.352;15.746;2022-12-13T09:36:06;2.43;;;1.27;;
13481;SDS011;6813;60.352;15.746;2022-12-13T09:38:34;1.23;;;1.00;;
13481;SDS011;6813;60.352;15.746;2022-12-13T09:41:20;1.10;;;1.00;;
13481;SDS011;6813;60.352;15.746;2022-12-13T09:43:58;1.50;;;0.87;;
13481;SDS011;6813;60.352;15.746;2022-12-13T09:46:37;1.27;;;0.80;;
13481;SDS011;6813;60.352;15.746;2022-12-13T09:49:06;1.30;;;0.83;;
13481;SDS011;6813;60.352;15.746;2022-12-13T09:51:38;1.03;;;0.80;;
13481;SDS011;6813;60.352;15.746;2022-12-13T09:54:04;1.03;;;0.70;;
13481;SDS011;6813;60.352;15.746;2022-12-13T09:56:30;1.63;;;0.73;;
13481;SDS011;6813;60.352;15.746;2022-12-13T09:58:57;2.10;;;1.13;;
13481;SDS011;6813;60.352;15.746;2022-12-13T10:01:23;0.80;;;0.80;;
13481;SDS011;6813;60.352;15.746;2022-12-13T10:03:50;2.27;;;1.10;;
13481;SDS011;6813;60.352;15.746;2022-12-13T10:06:21;3.63;;;1.43;;
13481;SDS011;6813;60.352;15.746;2022-12-13T10:08:55;1.90;;;1.40;;
13481;SDS011;6813;60.352;15.746;2022-12-13T10:11:24;2.47;;;1.30;;
13481;SDS011;6813;60.352;15.746;2022-12-13T10:16:53;2.00;;;0.80;;
13481;SDS011;6813;60.352;15.746;2022-12-13T10:19:43;1.60;;;1.07;;
13481;SDS011;6813;60.352;15.746;2022-12-13T10:22:15;1.63;;;0.90;;
13481;SDS011;6813;60.352;15.746;2022-12-13T10:27:14;1.00;;;0.90;;
13481;SDS011;6813;60.352;15.746;2022-12-13T10:32:25;1.10;;;0.90;;
13481;SDS011;6813;60.352;15.746;2022-12-13T10:34:51;1.10;;;1.00;;
13481;SDS011;6813;60.352;15.746;2022-12-13T10:39:48;1.20;;;0.90;;
13481;SDS011;6813;60.352;15.746;2022-12-13T10:42:17;1.50;;;0.90;;
13481;SDS011;6813;60.352;15.746;2022-12-13T10:44:44;5.23;;;1.03;;
13481;SDS011;6813;60.352;15.746;2022-12-13T10:47:21;3.13;;;0.80;;
13481;SDS011;6813;60.352;15.746;2022-12-13T10:49:52;0.53;;;0.53;;
13481;SDS011;6813;60.352;15.746;2022-12-13T10:54:57;2.47;;;0.90;;
13481;SDS011;6813;60.352;15.746;2022-12-13T10:57:48;2.13;;;1.03;;
13481;SDS011;6813;60.352;15.746;2022-12-13T11:00:35;0.73;;;0.73;;
13481;SDS011;6813;60.352;15.746;2022-12-13T11:03:12;8.17;;;0.97;;
13481;SDS011;6813;60.352;15.746;2022-12-13T11:06:05;2.33;;;1.20;;
13481;SDS011;6813;60.352;15.746;2022-12-13T11:08:38;2.37;;;1.10;;
13481;SDS011;6813;60.352;15.746;2022-12-13T11:11:07;1.50;;;1.00;;
13481;SDS011;6813;60.352;15.746;2022-12-13T11:13:35;1.47;;;0.90;;
13481;SDS011;6813;60.352;15.746;2022-12-13T11:16:24;0.60;;;0.60;;
13481;SDS011;6813;60.352;15.746;2022-12-13T11:18:55;1.67;;;1.20;;
13481;SDS011;6813;60.352;15.746;2022-12-13T11:21:28;1.47;;;0.93;;
13481;SDS011;6813;60.352;15.746;2022-12-13T11:23:55;0.60;;;0.60;;
13481;SDS011;6813;60.352;15.746;2022-12-13T11:26:24;1.00;;;0.80;;
13481;SDS011;6813;60.352;15.746;2022-12-13T11:29:00;1.33;;;1.10;;
13481;SDS011;6813;60.352;15.746;2022-12-13T11:32:01;1.53;;;1.20;;
13481;SDS011;6813;60.352;15.746;2022-12-13T11:40:21;1.70;;;1.17;;
13481;SDS011;6813;60.352;15.746;2022-12-13T11:46:04;1.37;;;1.03;;
13481;SDS011;6813;60.352;15.746;2022-12-13T11:48:49;1.10;;;1.00;;
13481;SDS011;6813;60.352;15.746;2022-12-13T11:51:26;1.60;;;1.03;;
13481;SDS011;6813;60.352;15.746;2022-12-13T11:54:14;1.77;;;1.40;;
13481;SDS011;6813;60.352;15.746;2022-12-13T11:56:47;1.10;;;1.00;;
13481;SDS011;6813;60.352;15.746;2022-12-13T11:59:23;2.00;;;1.07;;
13481;SDS011;6813;60.352;15.746;2022-12-13T12:02:15;2.10;;;1.40;;
13481;SDS011;6813;60.352;15.746;2022-12-13T12:04:53;1.00;;;0.90;;
13481;SDS011;6813;60.352;15.746;2022-12-13T12:07:21;1.53;;;1.07;;
13481;SDS011;6813;60.352;15.746;2022-12-13T12:09:53;1.27;;;1.13;;
13481;SDS011;6813;60.352;15.746;2022-12-13T12:12:47;2.13;;;1.10;;
13481;SDS011;6813;60.352;15.746;2022-12-13T12:15:31;1.87;;;1.07;;
13481;SDS011;6813;60.352;15.746;2022-12-13T12:18:07;1.23;;;0.83;;
13481;SDS011;6813;60.352;15.746;2022-12-13T12:20:46;2.33;;;1.40;;
13481;SDS011;6813;60.352;15.746;2022-12-13T12:26:12;1.00;;;0.97;;
13481;SDS011;6813;60.352;15.746;2022-12-13T12:34:51;2.63;;;1.50;;
13481;SDS011;6813;60.352;15.746;2022-12-13T12:37:31;2.10;;;1.40;;
13481;SDS011;6813;60.352;15.746;2022-12-13T12:57:08;3.00;;;1.30;;
13481;SDS011;6813;60.352;15.746;2022-12-13T13:02:27;2.67;;;1.40;;
13481;SDS011;6813;60.352;15.746;2022-12-13T13:10:42;2.00;;;1.10;;
13481;SDS011;6813;60.352;15.746;2022-12-13T13:18:54;1.70;;;1.30;;
13481;SDS011;6813;60.352;15.746;2022-12-13T13:23:47;1.40;;;1.00;;
13481;SDS011;6813;60.352;15.746;2022-12-13T13:26:28;1.30;;;1.20;;
13481;SDS011;6813;60.352;15.746;2022-12-13T13:34:45;1.67;;;0.93;;
13481;SDS011;6813;60.352;15.746;2022-12-13T13:45:29;2.27;;;1.23;;
13481;SDS011;6813;60.352;15.746;2022-12-13T13:47:58;2.30;;;1.30;;
13481;SDS011;6813;60.352;15.746;2022-12-13T13:53:48;1.37;;;1.17;;
13481;SDS011;6813;60.352;15.746;2022-12-13T13:56:33;2.23;;;1.30;;
13481;SDS011;6813;60.352;15.746;2022-12-13T14:08:17;2.03;;;1.50;;
13481;SDS011;6813;60.352;15.746;2022-12-13T14:30:04;1.37;;;1.20;;
13481;SDS011;6813;60.352;15.746;2022-12-13T14:32:30;2.40;;;1.50;;
13481;SDS011;6813;60.352;15.746;2022-12-13T14:35:01;1.77;;;1.30;;
13481;SDS011;6813;60.352;15.746;2022-12-13T14:37:28;1.87;;;1.20;;
13481;SDS011;6813;60.352;15.746;2022-12-13T14:39:56;2.07;;;1.20;;
13481;SDS011;6813;60.352;15.746;2022-12-13T14:42:27;1.63;;;1.00;;
13481;SDS011;6813;60.352;15.746;2022-12-13T14:47:47;1.20;;;0.90;;
13481;SDS011;6813;60.352;15.746;2022-12-13T14:50:16;1.10;;;0.90;;
13481;SDS011;6813;60.352;15.746;2022-12-13T14:52:42;1.60;;;0.90;;
13481;SDS011;6813;60.352;15.746;2022-12-13T14:55:20;1.60;;;1.10;;
13481;SDS011;6813;60.352;15.746;2022-12-13T14:57:50;1.07;;;0.90;;
13481;SDS011;6813;60.352;15.746;2022-12-13T15:00:22;1.50;;;1.10;;
13481;SDS011;6813;60.352;15.746;2022-12-13T15:02:50;2.13;;;1.10;;
13481;SDS011;6813;60.352;15.746;2022-12-13T15:05:24;2.10;;;1.30;;
13481;SDS011;6813;60.352;15.746;2022-12-13T15:08:00;1.27;;;1.10;;
13481;SDS011;6813;60.352;15.746;2022-12-13T15:13:01;2.80;;;1.70;;
13481;SDS011;6813;60.352;15.746;2022-12-13T15:15:31;4.13;;;1.60;;
13481;SDS011;6813;60.352;15.746;2022-12-13T15:20:38;1.20;;;1.00;;
13481;SDS011;6813;60.352;15.746;2022-12-13T15:26:00;1.37;;;1.00;;
13481;SDS011;6813;60.352;15.746;2022-12-13T15:28:33;1.40;;;0.90;;
13481;SDS011;6813;60.352;15.746;2022-12-13T15:31:01;1.50;;;1.13;;
13481;SDS011;6813;60.352;15.746;2022-12-13T15:33:30;1.97;;;1.30;;
13481;SDS011;6813;60.352;15.746;2022-12-13T15:36:01;1.20;;;1.10;;
13481;SDS011;6813;60.352;15.746;2022-12-13T15:41:26;2.10;;;1.27;;
13481;SDS011;6813;60.352;15.746;2022-12-13T15:43:56;3.30;;;2.03;;
13481;SDS011;6813;60.352;15.746;2022-12-13T15:46:27;2.57;;;1.70;;
13481;SDS011;6813;60.352;15.746;2022-12-13T15:48:55;2.20;;;1.07;;
13481;SDS011;6813;60.352;15.746;2022-12-13T15:51:23;2.40;;;1.40;;
13481;SDS011;6813;60.352;15.746;2022-12-13T15:59:03;3.07;;;1.77;;
13481;SDS011;6813;60.352;15.746;2022-12-13T16:03:56;3.90;;;2.23;;
13481;SDS011;6813;60.352;15.746;2022-12-13T16:06:22;6.73;;;3.40;;
13481;SDS011;6813;60.352;15.746;2022-12-13T16:08:51;3.83;;;1.53;;
13481;SDS011;6813;60.352;15.746;2022-12-13T16:11:42;1.87;;;1.47;;
13481;SDS011;6813;60.352;15.746;2022-12-13T16:16:59;1.73;;;1.10;;
13481;SDS011;6813;60.352;15.746;2022-12-13T16:19:27;2.30;;;1.23;;
13481;SDS011;6813;60.352;15.746;2022-12-13T16:21:53;1.00;;;0.93;;
13481;SDS011;6813;60.352;15.746;2022-12-13T16:24:19;2.00;;;1.20;;
13481;SDS011;6813;60.352;15.746;2022-12-13T16:26:45;2.47;;;1.70;;
13481;SDS011;6813;60.352;15.746;2022-12-13T16:29:12;1.87;;;1.20;;
13481;SDS011;6813;60.352;15.746;2022-12-13T16:31:40;2.03;;;1.50;;
13481;SDS011;6813;60.352;15.746;2022-12-13T16:34:08;1.23;;;1.03;;
13481;SDS011;6813;60.352;15.746;2022-12-13T16:36:34;1.53;;;0.93;;
13481;SDS011;6813;60.352;15.746;2022-12-13T16:39:01;0.80;;;0.70;;
13481;SDS011;6813;60.352;15.746;2022-12-13T16:41:28;1.07;;;0.97;;
13481;SDS011;6813;60.352;15.746;2022-12-13T16:43:55;0.70;;;0.70;;
13481;SDS011;6813;60.352;15.746;2022-12-13T16:46:25;2.27;;;1.40;;
13481;SDS011;6813;60.352;15.746;2022-12-13T16:48:51;0.80;;;0.80;;
13481;SDS011;6813;60.352;15.746;2022-12-13T16:51:18;2.07;;;1.17;;
13481;SDS011;6813;60.352;15.746;2022-12-13T16:53:44;3.47;;;2.43;;
13481;SDS011;6813;60.352;15.746;2022-12-13T16:56:10;2.07;;;1.87;;
13481;SDS011;6813;60.352;15.746;2022-12-13T16:58:40;4.97;;;4.50;;
13481;SDS011;6813;60.352;15.746;2022-12-13T17:01:08;2.20;;;1.90;;
13481;SDS011;6813;60.352;15.746;2022-12-13T17:03:35;1.37;;;0.93;;
13481;SDS011;6813;60.352;15.746;2022-12-13T17:06:02;2.13;;;1.57;;
13481;SDS011;6813;60.352;15.746;2022-12-13T17:08:28;1.97;;;1.43;;
13481;SDS011;6813;60.352;15.746;2022-12-13T17:10:55;0.87;;;0.80;;
13481;SDS011;6813;60.352;15.746;2022-12-13T17:13:21;1.30;;;0.60;;
13481;SDS011;6813;60.352;15.746;2022-12-13T17:15:47;1.40;;;0.80;;
13481;SDS011;6813;60.352;15.746;2022-12-13T17:18:12;0.87;;;0.70;;
13481;SDS011;6813;60.352;15.746;2022-12-13T17:20:38;4.37;;;2.53;;
13481;SDS011;6813;60.352;15.746;2022-12-13T17:23:04;7.53;;;4.67;;
13481;SDS011;6813;60.352;15.746;2022-12-13T17:25:30;16.40;;;7.97;;
13481;SDS011;6813;60.352;15.746;2022-12-13T17:27:56;8.67;;;4.60;;
13481;SDS011;6813;60.352;15.746;2022-12-13T17:30:22;10.83;;;5.43;;
13481;SDS011;6813;60.352;15.746;2022-12-13T17:32:48;7.83;;;5.43;;
13481;SDS011;6813;60.352;15.746;2022-12-13T17:35:14;8.23;;;4.60;;